Home   Weather   Spain   Sevilla   Past weeks
Flag for Spain

Past Weather in Sevilla, Spain — July 2020

Currently: 43 °F. Passing clouds. (Weather station: Sevilla / San Pablo, Spain). See more current weather

July 2020 Weather in Sevilla — Graph

°F

High & Low Weather Summary for July 2020

 TemperatureHumidityPressure
High108 °F (Jul 20, 6:30 pm)89% (Jul 19, 7:00 am)30.04 "Hg (Jul 19, 7:00 am)
Low66 °F (Jul 10, 5:00 am)14% (Jul 7, 6:30 pm)29.74 "Hg (Jul 20, 6:30 pm)
Average86 °F47%29.91 "Hg
* Reported Jul 7 2:00 pm — Jul 31 11:30 pm, Sevilla. Weather by CustomWeather, © 2022

Note: Actual official high and low records may vary slightly from our data, if they occured in-between our weather recording intervals... More about our weather records

Sevilla Weather History for July 7, 2020

Scroll right to see more
 ConditionsComfort  
Time TempWeatherWind HumidityBarometerVisibility
2:00 pm
Tue, Jul 7
99 °FPassing clouds.3 mph22%29.95 "HgN/A
2:30 pm100 °FSunny.5 mph18%29.92 "Hg10 mi
3:00 pm102 °FSunny.5 mph16%29.92 "Hg10 mi
3:30 pm102 °FSunny.8 mph17%29.92 "Hg10 mi
4:00 pm102 °FSunny.7 mph17%29.92 "Hg10 mi
4:30 pm104 °FSunny.7 mph15%29.89 "Hg10 mi
5:00 pm104 °FSunny.7 mph15%29.89 "Hg10 mi
5:30 pm104 °FSunny.7 mph15%29.89 "Hg10 mi
6:00 pm104 °FSunny.7 mph15%29.86 "Hg10 mi
6:30 pm104 °FSunny.7 mph14%29.86 "Hg10 mi
7:00 pm104 °FSunny.7 mph15%29.86 "Hg10 mi
7:30 pm102 °FSunny.7 mph16%29.86 "Hg10 mi
8:00 pm102 °FSunny.9 mph16%29.86 "Hg10 mi
8:30 pm102 °FSunny.9 mph15%29.86 "Hg10 mi
9:00 pm100 °FSunny.9 mph18%29.86 "Hg10 mi
9:30 pm99 °FSunny.7 mph21%29.86 "Hg10 mi
10:00 pm97 °FClear.5 mph25%29.83 "Hg10 mi
10:30 pm97 °FClear.5 mph23%29.86 "Hg10 mi
11:00 pm93 °FClear.6 mph23%29.86 "Hg10 mi
11:30 pm91 °FClear.2 mph28%29.89 "Hg10 mi
Weather by CustomWeather, © 2022

See weather overview